Time;durP1;ratioP1;P1;durP2;ratioP2;P2;SDS_P1;SDS_P2;PMS_P1;PMS_P2;Temp;Humidity;BMP_temperature;BMP_pressure;BME280_temperature;BME280_humidity;BME280_pressure;Samples;Min_cycle;Max_cycle;Signal;HPM_P1;HPM_P2
2022/05/28 00:00:22;;;;;;;1.95;0.95;;;7.50;99.90;;;;;;5051136;28;20029;-60
2022/05/28 00:02:48;;;;;;;2.20;0.95;;;7.50;99.90;;;;;;5064580;28;20029;-60
2022/05/28 00:05:14;;;;;;;2.05;0.80;;;7.60;99.90;;;;;;5068399;28;20032;-60
2022/05/28 00:07:40;;;;;;;5.25;1.00;;;7.60;99.90;;;;;;5052585;28;20036;-61
2022/05/28 00:10:09;;;;;;;2.67;0.70;;;7.50;99.90;;;;;;5071751;28;20019;-61
2022/05/28 00:12:34;;;;;;;2.08;0.82;;;7.50;99.90;;;;;;5051487;28;20128;-60
2022/05/28 00:15:00;;;;;;;4.55;1.90;;;7.60;99.90;;;;;;5071791;28;20115;-61
2022/05/28 00:17:25;;;;;;;5.22;0.95;;;7.50;99.90;;;;;;5048945;28;20033;-60
2022/05/28 00:19:51;;;;;;;4.35;0.70;;;7.50;99.90;;;;;;5051730;28;20028;-61
2022/05/28 00:22:17;;;;;;;7.10;1.20;;;7.40;99.90;;;;;;5070699;28;20037;-60
2022/05/28 00:24:42;;;;;;;3.13;0.80;;;7.40;99.90;;;;;;5047920;28;20126;-61
2022/05/28 00:27:08;;;;;;;5.03;1.17;;;7.40;99.90;;;;;;5050555;28;20033;-61
2022/05/28 00:29:34;;;;;;;4.00;1.17;;;7.40;99.90;;;;;;5068118;28;20431;-58
2022/05/28 00:31:59;;;;;;;5.95;1.25;;;7.40;99.90;;;;;;5051394;28;20025;-61
2022/05/28 00:34:27;;;;;;;3.90;1.25;;;7.40;99.90;;;;;;5070238;28;20054;-61
2022/05/28 00:36:52;;;;;;;2.72;1.08;;;7.40;99.90;;;;;;5049754;28;20106;-61
2022/05/28 00:39:18;;;;;;;4.88;1.10;;;7.40;99.90;;;;;;5070447;28;20496;-60
2022/05/28 00:41:44;;;;;;;2.42;0.90;;;7.30;99.90;;;;;;5049948;28;20033;-60
2022/05/28 00:44:10;;;;;;;2.65;1.20;;;7.30;99.90;;;;;;5070462;28;20028;-61
2022/05/28 00:46:36;;;;;;;7.82;1.08;;;7.30;99.90;;;;;;5049565;28;20082;-60
2022/05/28 00:49:05;;;;;;;6.53;1.55;;;7.30;99.90;;;;;;5070402;28;20032;-61
2022/05/28 00:51:40;;;;;;;2.90;1.25;;;7.30;99.90;;;;;;5049173;28;20028;-60
2022/05/28 00:54:06;;;;;;;6.40;1.30;;;7.30;99.90;;;;;;5031080;28;20125;-61
2022/05/28 00:56:33;;;;;;;6.85;1.30;;;7.40;99.90;;;;;;5051550;28;20025;-61
2022/05/28 00:58:59;;;;;;;6.60;1.50;;;7.30;99.90;;;;;;5070223;28;20395;-61
2022/05/28 01:02:04;;;;;;;6.90;1.35;;;7.30;99.90;;;;;;5042959;28;20594;-60
2022/05/28 01:05:28;;;;;;;6.25;1.95;;;7.30;99.90;;;;;;5054964;28;20060;-61
2022/05/28 01:09:09;;;;;;;7.75;1.52;;;7.40;99.90;;;;;;5064938;28;20132;-61
2022/05/28 01:12:34;;;;;;;5.30;1.23;;;7.40;99.90;;;;;;5048080;28;20391;-61
2022/05/28 01:16:08;;;;;;;7.65;1.23;;;7.30;99.90;;;;;;5059354;28;20040;-60
2022/05/28 01:19:26;;;;;;;8.35;1.58;;;7.40;99.90;;;;;;5048904;28;20633;-61
2022/05/28 01:22:47;;;;;;;6.47;1.40;;;7.40;99.90;;;;;;5058941;28;20028;-61
2022/05/28 01:26:28;;;;;;;9.63;2.17;;;7.40;99.90;;;;;;5054580;28;20123;-61
2022/05/28 01:30:05;;;;;;;5.22;1.38;;;7.50;99.90;;;;;;5058605;28;20035;-61
2022/05/28 01:33:30;;;;;;;7.53;1.40;;;7.50;99.90;;;;;;5056643;28;20040;-61
2022/05/28 01:36:56;;;;;;;4.65;1.40;;;7.40;99.90;;;;;;5050545;28;20036;-61
2022/05/28 01:40:21;;;;;;;5.43;1.20;;;7.30;99.90;;;;;;5065906;28;20670;-62
2022/05/28 01:43:47;;;;;;;8.98;1.58;;;7.40;99.90;;;;;;5056562;28;20123;-61
2022/05/28 01:47:12;;;;;;;8.82;1.70;;;7.40;99.90;;;;;;5029822;28;20394;-60
2022/05/28 01:50:37;;;;;;;6.03;1.30;;;7.40;99.90;;;;;;5058237;28;20039;-61
2022/05/28 01:54:11;;;;;;;9.98;2.08;;;7.40;99.90;;;;;;5048253;28;20056;-61
2022/05/28 01:57:34;;;;;;;4.20;1.77;;;7.40;99.90;;;;;;5057443;28;20119;-61
2022/05/28 02:00:59;;;;;;;11.32;1.77;;;7.50;99.90;;;;;;5052631;28;20032;-60
2022/05/28 02:04:25;;;;;;;7.82;1.98;;;7.50;99.90;;;;;;5050088;28;20071;-61
2022/05/28 02:07:50;;;;;;;8.30;1.35;;;7.60;99.90;;;;;;5029486;28;20041;-61
2022/05/28 02:11:30;;;;;;;3.72;1.10;;;7.80;99.90;;;;;;5057991;28;20112;-61
2022/05/28 02:14:26;;;;;;;4.93;1.42;;;7.80;99.90;;;;;;5058066;28;20412;-61
2022/05/28 02:17:22;;;;;;;8.02;1.58;;;7.70;99.90;;;;;;5029551;28;20488;-61
2022/05/28 02:20:17;;;;;;;5.32;1.10;;;7.70;99.90;;;;;;5047505;28;20033;-61
2022/05/28 02:22:44;;;;;;;5.57;1.27;;;7.60;99.90;;;;;;5030192;28;20116;-61
2022/05/28 02:25:16;;;;;;;9.10;1.50;;;7.60;99.90;;;;;;5053806;28;20036;-61
2022/05/28 02:27:43;;;;;;;6.65;1.63;;;7.60;99.90;;;;;;5064736;28;20577;-61
2022/05/28 02:30:10;;;;;;;4.80;1.30;;;7.70;99.90;;;;;;5049275;28;20017;-61
2022/05/28 02:32:35;;;;;;;12.00;1.70;;;7.60;99.90;;;;;;5064759;28;20025;-61
2022/05/28 02:35:01;;;;;;;5.65;1.75;;;7.60;99.90;;;;;;5049280;28;20518;-61
2022/05/28 02:37:27;;;;;;;11.70;1.75;;;7.60;99.90;;;;;;5065829;28;20533;-60
2022/05/28 02:39:53;;;;;;;5.68;1.58;;;7.60;99.90;;;;;;5049127;28;20162;-61
2022/05/28 02:42:19;;;;;;;13.43;1.45;;;7.70;99.90;;;;;;5068176;28;20032;-61
2022/05/28 02:44:45;;;;;;;4.88;1.48;;;7.70;99.90;;;;;;5047510;28;20531;-62
2022/05/28 02:47:10;;;;;;;10.60;1.60;;;7.70;99.90;;;;;;5068269;28;20039;-61
2022/05/28 02:49:36;;;;;;;5.85;2.05;;;7.70;99.90;;;;;;5047555;28;20037;-61
2022/05/28 02:52:04;;;;;;;8.90;1.85;;;7.70;99.90;;;;;;5068072;28;20499;-61
2022/05/28 02:54:30;;;;;;;7.88;1.75;;;7.70;99.90;;;;;;5047057;28;20610;-61
2022/05/28 02:56:56;;;;;;;6.03;1.80;;;7.80;99.90;;;;;;5068084;28;20115;-61
2022/05/28 02:59:21;;;;;;;7.28;1.70;;;7.80;99.90;;;;;;5047855;28;20492;-60
2022/05/28 03:02:27;;;;;;;7.43;1.73;;;7.90;99.90;;;;;;5065199;28;20028;-62
2022/05/28 03:05:52;;;;;;;9.50;1.65;;;8.10;99.90;;;;;;5064872;28;20111;-61
2022/05/28 03:09:17;;;;;;;8.20;1.45;;;8.30;99.90;;;;;;5045299;28;20032;-62
2022/05/28 03:12:43;;;;;;;3.28;1.30;;;8.40;99.90;;;;;;5057412;28;20046;-54
2022/05/28 03:16:08;;;;;;;6.32;1.40;;;8.60;99.90;;;;;;5028564;28;20095;-54
2022/05/28 03:19:33;;;;;;;5.88;1.75;;;8.70;99.90;;;;;;5042986;28;20543;-52
2022/05/28 03:22:59;;;;;;;7.00;1.30;;;8.80;99.90;;;;;;5057096;28;20033;-50
2022/05/28 03:26:31;;;;;;;8.90;1.50;;;8.80;99.90;;;;;;5055027;28;20049;-51
2022/05/28 03:29:56;;;;;;;6.90;1.70;;;8.80;99.90;;;;;;5047300;28;20037;-55
2022/05/28 03:33:21;;;;;;;8.45;1.45;;;8.90;99.90;;;;;;5052497;28;20048;-55
2022/05/28 03:36:47;;;;;;;7.68;1.55;;;9.00;99.90;;;;;;5028807;28;20115;-50
2022/05/28 03:40:12;;;;;;;6.07;1.90;;;9.10;99.90;;;;;;5044220;28;20033;-55
2022/05/28 03:43:37;;;;;;;5.85;1.48;;;9.20;99.90;;;;;;5059920;28;20036;-52
2022/05/28 03:46:30;;;;;;;5.80;1.73;;;9.20;99.90;;;;;;5065921;28;20028;-53
2022/05/28 03:49:00;;;;;;;5.60;1.65;;;9.30;99.90;;;;;;5052470;28;20508;-55
2022/05/28 03:51:26;;;;;;;8.35;1.40;;;9.40;99.90;;;;;;5067701;28;20107;-51
2022/05/28 03:53:51;;;;;;;6.13;1.40;;;9.40;99.90;;;;;;5052350;28;20048;-57
2022/05/28 03:56:18;;;;;;;14.52;1.95;;;9.50;99.90;;;;;;5068156;28;20028;-53
2022/05/28 03:58:43;;;;;;;6.88;1.48;;;9.50;99.90;;;;;;5052209;28;20523;-51
2022/05/28 04:01:49;;;;;;;6.68;1.42;;;9.40;99.90;;;;;;5065245;28;20029;-52
2022/05/28 04:05:14;;;;;;;7.88;1.85;;;9.40;99.90;;;;;;5069092;28;20472;-53
2022/05/28 04:08:40;;;;;;;3.80;1.20;;;9.50;99.90;;;;;;5045680;28;20037;-51
2022/05/28 04:12:05;;;;;;;5.57;1.48;;;9.50;99.90;;;;;;5032590;28;20761;-49
2022/05/28 04:14:50;;;;;;;7.97;1.38;;;9.50;99.90;;;;;;5031936;28;20107;-50
2022/05/28 04:17:16;;;;;;;5.13;1.10;;;9.50;99.90;;;;;;5070453;28;20024;-50
2022/05/28 04:19:42;;;;;;;12.10;1.60;;;9.60;99.90;;;;;;5050413;28;20037;-52
2022/05/28 04:22:08;;;;;;;7.93;1.30;;;9.60;99.90;;;;;;5070983;28;20029;-55
2022/05/28 04:24:34;;;;;;;6.68;2.40;;;9.60;99.90;;;;;;5050136;28;20032;-51
2022/05/28 04:26:59;;;;;;;4.78;1.42;;;9.60;99.90;;;;;;5071404;28;20040;-51
2022/05/28 04:29:25;;;;;;;8.35;1.40;;;9.70;99.90;;;;;;5050322;28;20037;-50
2022/05/28 04:31:50;;;;;;;9.55;1.50;;;9.80;99.90;;;;;;5070758;28;20059;-53
2022/05/28 04:34:16;;;;;;;5.53;1.45;;;9.80;99.90;;;;;;5050241;28;20609;-53
2022/05/28 04:36:41;;;;;;;9.20;1.63;;;10.00;99.90;;;;;;5070647;28;20033;-49
2022/05/28 04:39:07;;;;;;;9.02;1.40;;;10.10;99.90;;;;;;5050109;28;20075;-48
2022/05/28 04:41:33;;;;;;;6.70;1.30;;;10.30;98.40;;;;;;5070608;28;20032;-48
2022/05/28 04:43:58;;;;;;;4.55;1.15;;;10.30;97.60;;;;;;5049941;28;20051;-55
2022/05/28 04:46:24;;;;;;;5.63;1.73;;;10.30;96.10;;;;;;5070475;28;20033;-52
2022/05/28 04:48:50;;;;;;;7.57;1.85;;;10.30;95.50;;;;;;5049989;28;20021;-51
2022/05/28 04:51:15;;;;;;;3.55;1.20;;;10.30;95.00;;;;;;5069854;28;20024;-54
2022/05/28 04:53:40;;;;;;;5.90;1.30;;;10.40;96.10;;;;;;5049084;28;20115;-50
2022/05/28 04:56:06;;;;;;;2.10;1.23;;;10.30;93.40;;;;;;5070407;28;20492;-61
2022/05/28 04:58:32;;;;;;;5.82;0.93;;;10.40;94.10;;;;;;5049488;28;20033;-60
2022/05/28 05:01:37;;;;;;;4.43;0.98;;;10.70;93.90;;;;;;5066654;28;20053;-61
2022/05/28 05:05:02;;;;;;;3.35;1.30;;;11.10;90.40;;;;;;5048739;28;20070;-60
2022/05/28 05:08:28;;;;;;;4.55;0.93;;;11.30;84.60;;;;;;5061573;28;20489;-60
2022/05/28 05:11:53;;;;;;;2.63;0.85;;;11.20;80.50;;;;;;5030919;28;20033;-61
2022/05/28 05:15:18;;;;;;;3.70;0.90;;;11.30;80.60;;;;;;5047257;28;20130;-61
2022/05/28 05:18:44;;;;;;;1.45;0.90;;;12.00;74.40;;;;;;5051305;28;20036;-61
2022/05/28 05:22:09;;;;;;;1.35;0.80;;;14.10;65.60;;;;;;5058665;28;20515;-61
2022/05/28 05:25:35;;;;;;;1.98;0.52;;;15.80;47.00;;;;;;5060985;28;20042;-59
2022/05/28 05:29:00;;;;;;;2.47;0.88;;;16.80;39.40;;;;;;5058512;28;20041;-59
2022/05/28 05:32:25;;;;;;;3.78;0.70;;;19.30;30.20;;;;;;5058518;28;20028;-59
2022/05/28 05:35:51;;;;;;;2.05;0.65;;;17.90;30.80;;;;;;5060863;28;20078;-60
2022/05/28 05:39:16;;;;;;;4.47;1.10;;;18.60;29.10;;;;;;5052603;28;20033;-59
2022/05/28 05:42:41;;;;;;;4.28;1.25;;;18.40;26.20;;;;;;5064450;28;20407;-60
2022/05/28 05:46:10;;;;;;;1.52;0.80;;;16.50;31.00;;;;;;5058340;28;20039;-59
2022/05/28 05:49:35;;;;;;;3.30;0.73;;;15.60;36.70;;;;;;5043846;28;20044;-59
2022/05/28 05:53:00;;;;;;;2.78;0.90;;;15.10;38.70;;;;;;5058210;28;20094;-58
2022/05/28 05:56:26;;;;;;;2.58;0.68;;;16.10;36.00;;;;;;5064121;28;20407;-59
2022/05/28 05:59:52;;;;;;;3.20;1.08;;;16.10;33.20;;;;;;5042963;28;20037;-59
2022/05/28 06:03:16;;;;;;;2.10;1.00;;;18.00;32.90;;;;;;5054018;28;20036;-60
2022/05/28 06:06:42;;;;;;;2.05;0.98;;;19.50;26.70;;;;;;5029909;28;20080;-61
2022/05/28 06:10:07;;;;;;;2.83;0.77;;;20.50;25.80;;;;;;5044967;28;20033;-60
2022/05/28 06:13:32;;;;;;;2.53;1.00;;;18.60;27.30;;;;;;5031233;28;20102;-61
2022/05/28 06:16:58;;;;;;;3.83;1.17;;;17.70;26.60;;;;;;5027557;28;20041;-59
2022/05/28 06:20:24;;;;;;;2.05;0.80;;;16.20;29.90;;;;;;5052111;28;20038;-61
2022/05/28 06:23:49;;;;;;;3.42;0.85;;;17.90;30.40;;;;;;5054221;28;20036;-61
2022/05/28 06:27:14;;;;;;;3.50;0.90;;;17.60;28.50;;;;;;5035939;28;20063;-60
2022/05/28 06:30:40;;;;;;;3.45;1.48;;;17.60;26.10;;;;;;5060187;28;20071;-61
2022/05/28 06:34:05;;;;;;;2.97;1.23;;;16.20;31.30;;;;;;5048531;28;20052;-60
2022/05/28 06:37:30;;;;;;;3.78;1.13;;;15.40;36.10;;;;;;5062825;28;20066;-60
2022/05/28 06:40:55;;;;;;;2.70;0.80;;;14.80;38.20;;;;;;5054532;28;20082;-61
2022/05/28 06:44:21;;;;;;;3.03;0.90;;;14.40;40.20;;;;;;5041690;28;20036;-60
2022/05/28 06:47:46;;;;;;;2.80;1.02;;;14.00;42.50;;;;;;5063885;28;20502;-61
2022/05/28 06:51:12;;;;;;;2.67;0.90;;;13.70;45.70;;;;;;5056972;28;20039;-61
2022/05/28 06:54:37;;;;;;;3.63;1.48;;;14.90;39.90;;;;;;5052736;28;20044;-61
2022/05/28 06:57:09;;;;;;;2.97;1.20;;;18.00;31.10;;;;;;5045601;28;20056;-60
2022/05/28 06:59:34;;;;;;;5.40;1.10;;;18.60;29.60;;;;;;5052041;28;20041;-49
2022/05/28 07:02:40;;;;;;;3.90;0.80;;;18.30;28.10;;;;;;5027193;28;20040;-49
2022/05/28 07:06:05;;;;;;;5.30;1.20;;;18.40;24.30;;;;;;5043615;28;20033;-54
2022/05/28 07:09:31;;;;;;;5.95;1.10;;;20.50;21.30;;;;;;5055852;28;20048;-50
2022/05/28 07:12:56;;;;;;;5.32;1.27;;;19.30;22.20;;;;;;5065313;28;20044;-58
2022/05/28 07:16:21;;;;;;;7.38;1.52;;;17.50;25.00;;;;;;5066835;28;20504;-59
2022/05/28 07:19:47;;;;;;;2.88;1.02;;;16.40;29.50;;;;;;5038764;28;20040;-58
2022/05/28 07:23:12;;;;;;;7.10;1.42;;;15.80;30.80;;;;;;5059057;28;20120;-58
2022/05/28 07:26:37;;;;;;;4.32;1.20;;;15.80;31.50;;;;;;5047199;28;20456;-58
2022/05/28 07:30:03;;;;;;;4.38;1.10;;;16.40;28.90;;;;;;5046727;28;20115;-57
2022/05/28 07:33:28;;;;;;;4.75;1.33;;;16.70;28.50;;;;;;5032778;28;20045;-58
2022/05/28 07:36:54;;;;;;;2.58;1.00;;;20.40;22.40;;;;;;5055810;28;20047;-59
2022/05/28 07:40:19;;;;;;;3.75;1.45;;;23.70;12.70;;;;;;5042993;28;20029;-59
2022/05/28 07:43:44;;;;;;;3.17;1.58;;;26.20;8.10;;;;;;5061240;28;20099;-59
2022/05/28 07:47:10;;;;;;;3.60;1.00;;;27.70;4.30;;;;;;5032749;28;20037;-59
2022/05/28 07:50:35;;;;;;;2.55;1.10;;;26.60;3.90;;;;;;5049091;28;20489;-59
2022/05/28 07:54:00;;;;;;;3.22;1.13;;;24.20;6.80;;;;;;5055185;28;20041;-59
2022/05/28 07:57:26;;;;;;;6.45;1.00;;;22.40;10.80;;;;;;5066606;28;20037;-59
2022/05/28 08:00:52;;;;;;;4.03;1.42;;;20.10;13.70;;;;;;5042374;28;20138;-59
2022/05/28 08:04:17;;;;;;;3.90;1.55;;;19.00;18.00;;;;;;5036647;28;20461;-58
2022/05/28 08:07:42;;;;;;;3.65;1.20;;;19.40;18.30;;;;;;5052163;28;20091;-59
2022/05/28 08:11:07;;;;;;;5.78;1.52;;;19.50;18.00;;;;;;5045976;28;20463;-59
2022/05/28 08:14:33;;;;;;;4.55;1.45;;;18.20;21.30;;;;;;5046632;28;20064;-59
2022/05/28 08:17:58;;;;;;;2.63;1.15;;;17.40;25.80;;;;;;5040523;28;20033;-57
2022/05/28 08:23:28;;;;;;;1.88;1.08;;;18.10;23.30;;;;;;5039147;28;20044;-59
2022/05/28 08:25:53;;;;;;;3.22;0.98;;;18.60;22.00;;;;;;5059810;28;20033;-59
2022/05/28 08:28:20;;;;;;;3.55;1.02;;;18.80;20.50;;;;;;5034822;28;20608;-59
2022/05/28 08:30:47;;;;;;;4.05;1.02;;;19.00;19.80;;;;;;5041877;28;20028;-59
2022/05/28 08:33:52;;;;;;;3.67;1.20;;;18.70;19.30;;;;;;5031562;28;20077;-59
2022/05/28 08:37:18;;;;;;;2.05;1.00;;;18.70;18.40;;;;;;5056601;28;20028;-60
2022/05/28 08:40:43;;;;;;;3.83;1.48;;;18.10;19.50;;;;;;5060103;28;20482;-59
2022/05/28 08:44:12;;;;;;;1.23;0.70;;;17.80;21.40;;;;;;5060779;28;20039;-59
2022/05/28 08:47:40;;;;;;;2.97;1.27;;;19.50;17.40;;;;;;5052129;28;20025;-60
2022/05/28 08:51:05;;;;;;;3.63;1.90;;;19.50;17.00;;;;;;5059857;28;20076;-59
2022/05/28 08:54:30;;;;;;;2.40;1.10;;;19.40;17.10;;;;;;5059632;28;20048;-59
2022/05/28 08:58:14;;;;;;;5.05;1.38;;;19.20;16.30;;;;;;5053255;28;20116;-59
2022/05/28 09:01:44;;;;;;;4.88;1.30;;;18.70;18.10;;;;;;5060567;28;20036;-59
2022/05/28 09:05:08;;;;;;;5.35;1.48;;;19.10;17.30;;;;;;5069959;28;20028;-58
2022/05/28 09:08:33;;;;;;;3.25;1.10;;;19.10;15.00;;;;;;5046362;28;20098;-59
2022/05/28 09:11:58;;;;;;;4.20;1.13;;;18.00;16.90;;;;;;5033387;28;20396;-57
2022/05/28 09:14:44;;;;;;;3.72;1.27;;;17.00;18.90;;;;;;5047833;28;20048;-58
2022/05/28 09:17:32;;;;;;;3.05;1.10;;;17.80;19.60;;;;;;5069916;28;20102;-58
2022/05/28 09:20:05;;;;;;;5.43;1.40;;;19.90;15.80;;;;;;5030828;28;20036;-59
2022/05/28 09:22:31;;;;;;;3.03;1.05;;;21.10;13.80;;;;;;5029642;28;20080;-58
2022/05/28 09:24:56;;;;;;;4.28;1.50;;;21.10;13.10;;;;;;5053234;28;20131;-58
2022/05/28 09:27:41;;;;;;;3.10;1.08;;;20.40;13.20;;;;;;5070466;28;20620;-59
2022/05/28 09:30:43;;;;;;;3.30;1.30;;;20.00;12.80;;;;;;5070581;28;20024;-59
2022/05/28 09:33:25;;;;;;;4.75;1.45;;;19.90;12.70;;;;;;5049026;28;20079;-58
2022/05/28 09:35:54;;;;;;;4.10;1.02;;;20.00;13.40;;;;;;5050445;28;20023;-58
2022/05/28 09:38:30;;;;;;;4.00;1.27;;;20.00;12.70;;;;;;5059688;28;20396;-58
2022/05/28 09:41:07;;;;;;;7.43;1.60;;;19.70;12.90;;;;;;5069881;28;20043;-57
2022/05/28 09:44:05;;;;;;;3.90;1.45;;;19.10;14.00;;;;;;5037760;28;20044;-59
2022/05/28 09:46:43;;;;;;;2.10;1.02;;;19.20;14.80;;;;;;5029230;28;20037;-58
2022/05/28 09:49:31;;;;;;;4.28;1.45;;;19.80;13.80;;;;;;5042859;28;20055;-58
2022/05/28 09:56:27;;;;;;;4.13;1.30;;;20.00;12.60;;;;;;5063700;28;20087;-59
2022/05/28 09:59:49;;;;;;;1.60;1.10;;;20.00;12.60;;;;;;5043043;28;20043;-59
2022/05/28 10:06:40;;;;;;;3.60;1.30;;;20.10;12.10;;;;;;5066320;28;20082;-59
2022/05/28 10:10:09;;;;;;;6.88;1.40;;;20.20;12.10;;;;;;5046995;28;20044;-59
2022/05/28 10:14:05;;;;;;;3.80;1.33;;;19.80;12.60;;;;;;5057086;28;20052;-59
2022/05/28 10:17:30;;;;;;;6.13;1.77;;;19.80;13.20;;;;;;5057465;28;20032;-59
2022/05/28 10:20:18;;;;;;;4.97;1.52;;;20.00;12.40;;;;;;5036626;28;20506;-59
2022/05/28 10:22:47;;;;;;;4.65;1.30;;;20.00;12.60;;;;;;5037788;28;20194;-59
2022/05/28 10:25:37;;;;;;;6.47;1.70;;;20.10;11.10;;;;;;5061945;28;20045;-59
2022/05/28 10:28:03;;;;;;;5.65;1.33;;;20.20;10.50;;;;;;5056796;28;20035;-59
2022/05/28 10:30:36;;;;;;;6.25;2.03;;;20.20;11.40;;;;;;5055455;28;20642;-59
2022/05/28 10:33:08;;;;;;;3.30;1.40;;;19.80;11.10;;;;;;5030393;28;20626;-59
2022/05/28 10:35:34;;;;;;;4.70;1.73;;;19.30;11.40;;;;;;5063286;28;20044;-59
2022/05/28 10:38:09;;;;;;;4.68;1.30;;;18.90;13.00;;;;;;5033640;28;20026;-59
2022/05/28 10:40:59;;;;;;;6.13;1.65;;;18.60;13.70;;;;;;5058084;28;20036;-59
2022/05/28 10:43:29;;;;;;;2.20;1.35;;;18.10;15.00;;;;;;5049052;28;20021;-58
2022/05/28 10:46:16;;;;;;;5.80;1.70;;;17.70;16.50;;;;;;5067050;28;20024;-59
2022/05/28 10:48:48;;;;;;;4.15;1.15;;;17.40;17.30;;;;;;5043371;28;20033;-59
2022/05/28 10:51:13;;;;;;;3.88;1.33;;;17.30;18.00;;;;;;5056782;28;20060;-59
2022/05/28 10:54:06;;;;;;;4.22;1.50;;;17.60;17.40;;;;;;5068240;28;20126;-59
2022/05/28 10:57:01;;;;;;;5.20;1.55;;;17.90;18.90;;;;;;5039226;28;20622;-59
2022/05/28 10:59:26;;;;;;;4.88;1.17;;;18.20;17.30;;;;;;5052310;28;20028;-59
2022/05/28 11:02:50;;;;;;;5.60;1.45;;;18.50;16.70;;;;;;5047409;28;20025;-60
2022/05/28 11:06:17;;;;;;;4.07;1.45;;;18.90;16.00;;;;;;5061709;28;20120;-59
2022/05/28 11:09:26;;;;;;;4.28;1.45;;;19.20;15.70;;;;;;5042412;28;20494;-59
2022/05/28 11:12:18;;;;;;;2.28;1.05;;;19.00;13.90;;;;;;5032262;28;20203;-59
2022/05/28 11:15:23;;;;;;;3.65;1.58;;;18.80;14.70;;;;;;5065475;28;20040;-58
2022/05/28 11:18:17;;;;;;;5.38;1.50;;;18.40;14.50;;;;;;5044165;28;20025;-58
2022/05/28 11:20:55;;;;;;;3.88;1.60;;;18.30;15.50;;;;;;5043266;28;20036;-58
2022/05/28 11:23:23;;;;;;;4.93;1.65;;;18.50;15.60;;;;;;5069187;28;20024;-58
2022/05/28 11:26:03;;;;;;;5.68;1.35;;;18.70;14.90;;;;;;5040766;28;20405;-58
2022/05/28 11:28:58;;;;;;;8.55;1.85;;;18.90;14.50;;;;;;5040938;28;20029;-58
2022/05/28 11:32:27;;;;;;;3.40;1.23;;;18.70;14.50;;;;;;5033935;28;20033;-58
2022/05/28 11:35:31;;;;;;;8.00;2.05;;;18.00;15.50;;;;;;5060057;28;20048;-59
2022/05/28 11:38:17;;;;;;;3.28;1.17;;;17.60;16.50;;;;;;5033962;28;20025;-59
2022/05/28 11:41:03;;;;;;;3.90;1.40;;;17.40;17.20;;;;;;5044195;28;20116;-59
2022/05/28 11:44:30;;;;;;;4.57;1.30;;;17.60;17.20;;;;;;5041423;28;20112;-58
2022/05/28 11:47:41;;;;;;;8.82;1.70;;;17.80;18.10;;;;;;5038383;28;20032;-59
2022/05/28 11:51:46;;;;;;;5.70;1.60;;;18.00;18.50;;;;;;5036298;28;20061;-59
2022/05/28 11:53:58;;;;;;;4.45;1.60;;;18.10;18.50;;;;;;5060302;28;20048;-59
2022/05/28 11:56:28;;;;;;;6.80;3.05;;;17.80;16.70;;;;;;5034120;28;20103;-60
2022/05/28 11:59:10;;;;;;;4.55;2.00;;;17.70;16.80;;;;;;5027896;28;20036;-56
2022/05/28 12:02:25;;;;;;;7.15;1.45;;;17.50;17.00;;;;;;5042641;28;20427;-59
2022/05/28 12:05:48;;;;;;;5.32;1.52;;;17.60;16.80;;;;;;5066400;28;20068;-58
2022/05/28 12:09:26;;;;;;;3.42;1.30;;;17.80;17.10;;;;;;5060307;28;20040;-59
2022/05/28 12:12:49;;;;;;;3.85;1.20;;;17.80;14.90;;;;;;5051212;28;20041;-59
2022/05/28 12:16:15;;;;;;;4.22;1.38;;;17.70;14.90;;;;;;5059967;28;20047;-59
2022/05/28 12:19:15;;;;;;;3.83;1.30;;;17.60;14.70;;;;;;5063903;28;20095;-59
2022/05/28 12:22:56;;;;;;;6.03;1.58;;;17.70;15.50;;;;;;5050593;28;20377;-59
2022/05/28 12:26:45;;;;;;;4.53;1.92;;;17.90;15.60;;;;;;5064903;28;20508;-59
2022/05/28 12:29:29;;;;;;;3.35;1.75;;;17.80;13.80;;;;;;5053784;28;20061;-59
2022/05/28 12:32:18;;;;;;;5.05;1.67;;;17.50;16.10;;;;;;5041819;28;20033;-58
2022/05/28 12:35:23;;;;;;;5.50;1.50;;;17.10;19.10;;;;;;5029869;28;20056;-60
2022/05/28 12:38:08;;;;;;;6.72;1.42;;;16.70;23.20;;;;;;5055716;28;20036;-59
2022/05/28 12:41:46;;;;;;;6.43;1.50;;;16.60;25.40;;;;;;5030971;28;20088;-59
2022/05/28 12:45:12;;;;;;;3.47;1.20;;;16.90;27.80;;;;;;5067214;28;20041;-59
2022/05/28 12:48:52;;;;;;;4.47;1.60;;;17.10;28.20;;;;;;5046159;28;20114;-59
2022/05/28 12:52:21;;;;;;;2.40;1.30;;;17.20;24.80;;;;;;5030542;28;20026;-59
2022/05/28 12:55:12;;;;;;;;;;;17.40;23.30;;;;;;5054386;28;20045;-59
2022/05/28 12:58:20;;;;;;;4.40;1.30;;;17.20;22.70;;;;;;5052349;28;19916;-59
2022/05/28 13:01:46;;;;;;;5.10;1.23;;;17.00;23.10;;;;;;5053888;28;20066;-59
2022/05/28 13:05:11;;;;;;;4.18;1.30;;;17.00;24.50;;;;;;5067798;28;20355;-59
2022/05/28 13:08:36;;;;;;;5.55;1.55;;;17.50;22.60;;;;;;5044876;28;20041;-59
2022/05/28 13:12:02;;;;;;;5.53;1.60;;;17.80;21.50;;;;;;5066805;28;20043;-59
2022/05/28 13:15:39;;;;;;;4.00;1.17;;;17.60;20.50;;;;;;5052220;28;20436;-59
2022/05/28 13:19:22;;;;;;;5.28;1.08;;;17.00;27.20;;;;;;5059640;28;20430;-59
2022/05/28 13:22:56;;;;;;;2.50;0.95;;;16.50;29.50;;;;;;5059938;28;20527;-59
2022/05/28 13:26:13;;;;;;;4.55;1.20;;;16.60;37.50;;;;;;5049785;28;20037;-59
2022/05/28 13:29:05;;;;;;;2.38;1.02;;;17.00;33.50;;;;;;5053751;28;20033;-59
2022/05/28 13:32:30;;;;;;;3.88;1.08;;;17.10;30.30;;;;;;5033020;28;20444;-59
2022/05/28 13:35:58;;;;;;;2.17;1.08;;;17.10;32.00;;;;;;5029002;28;20054;-57
2022/05/28 13:39:24;;;;;;;3.17;1.27;;;17.00;36.30;;;;;;5046202;28;20029;-59
2022/05/28 13:43:04;;;;;;;4.07;1.17;;;16.70;32.50;;;;;;5066620;28;20052;-59
2022/05/28 13:46:29;;;;;;;5.07;1.60;;;16.70;32.50;;;;;;5029739;28;20041;-59
2022/05/28 13:49:55;;;;;;;4.03;1.10;;;17.00;29.10;;;;;;5058630;28;20082;-59
2022/05/28 13:53:23;;;;;;;4.97;1.10;;;17.20;25.10;;;;;;5052461;28;20037;-59
2022/05/28 13:56:48;;;;;;;2.78;1.23;;;17.40;23.30;;;;;;5029618;28;20128;-59
2022/05/28 14:00:14;;;;;;;3.08;0.88;;;17.80;22.80;;;;;;5051905;28;20020;-59
2022/05/28 14:03:45;;;;;;;3.00;1.10;;;17.50;20.80;;;;;;5039745;28;20036;-59
2022/05/28 14:07:13;;;;;;;2.92;0.90;;;17.40;21.40;;;;;;5029413;28;20033;-59
2022/05/28 14:10:39;;;;;;;6.03;1.20;;;17.20;21.10;;;;;;5058046;28;20036;-59
2022/05/28 14:14:04;;;;;;;2.78;0.95;;;17.30;22.40;;;;;;5058045;28;20041;-59
2022/05/28 14:17:32;;;;;;;4.03;1.55;;;17.40;21.80;;;;;;5061168;28;20048;-59
2022/05/28 14:20:58;;;;;;;3.85;1.85;;;17.10;21.60;;;;;;5029494;28;20037;-58
2022/05/28 14:24:23;;;;;;;4.85;0.98;;;16.70;25.70;;;;;;5062928;28;20710;-59
2022/05/28 14:27:48;;;;;;;3.08;1.15;;;16.40;27.60;;;;;;5055681;28;20040;-59
2022/05/28 14:31:14;;;;;;;3.22;1.25;;;16.20;26.90;;;;;;5057892;28;20040;-59
2022/05/28 14:34:39;;;;;;;3.10;1.17;;;16.30;26.30;;;;;;5057341;28;20048;-59
2022/05/28 14:37:25;;;;;;;5.13;1.17;;;16.40;26.30;;;;;;5048504;28;20052;-58
2022/05/28 14:40:59;;;;;;;5.13;1.50;;;16.30;26.30;;;;;;5028829;28;20037;-59
2022/05/28 14:44:25;;;;;;;5.55;1.90;;;15.90;31.50;;;;;;5063297;28;20028;-59
2022/05/28 14:47:56;;;;;;;4.35;1.77;;;15.80;31.60;;;;;;5055418;28;20249;-59
2022/05/28 14:51:24;;;;;;;5.78;2.25;;;15.90;31.10;;;;;;5057226;28;20033;-58
2022/05/28 14:54:37;;;;;;;;;;;16.10;30.60;;;;;;5029147;28;20386;-59
2022/05/28 14:58:04;;;;;;;2.38;1.15;;;16.20;29.60;;;;;;5040091;28;20002;-58
2022/05/28 15:01:10;;;;;;;;;;;16.60;28.60;;;;;;5047537;28;20029;-59
2022/05/28 15:04:35;;;;;;;3.05;1.38;;;16.90;27.20;;;;;;5046209;28;19912;-59
2022/05/28 15:08:03;;;;;;;7.18;1.90;;;16.90;25.00;;;;;;5048611;28;20041;-58
2022/05/28 15:11:29;;;;;;;6.63;1.73;;;16.80;25.20;;;;;;5064671;28;20369;-59
2022/05/28 15:14:54;;;;;;;5.95;2.15;;;16.70;24.70;;;;;;5059819;28;20052;-59
2022/05/28 15:18:19;;;;;;;4.32;1.70;;;16.30;23.30;;;;;;5050339;28;20382;-59
2022/05/28 15:21:45;;;;;;;7.72;2.25;;;15.90;23.60;;;;;;5028539;28;20038;-59
2022/05/28 15:25:10;;;;;;;9.38;2.67;;;15.60;24.60;;;;;;5056888;28;20033;-59
2022/05/28 15:28:36;;;;;;;6.63;2.80;;;15.40;24.60;;;;;;5048918;28;20048;-59
2022/05/28 15:32:02;;;;;;;6.28;2.15;;;15.40;24.80;;;;;;5056760;28;20043;-59
2022/05/28 15:38:51;;;;;;;5.35;2.10;;;15.50;24.40;;;;;;5057519;28;20090;-59
2022/05/28 15:42:16;;;;;;;6.43;2.13;;;15.70;24.30;;;;;;5058845;28;20128;-59
2022/05/28 15:45:41;;;;;;;11.25;2.25;;;15.90;24.20;;;;;;5054704;28;20087;-59
2022/05/28 15:49:07;;;;;;;5.47;1.90;;;16.00;24.20;;;;;;5047426;28;20071;-59
2022/05/28 15:52:32;;;;;;;5.82;1.85;;;16.00;24.00;;;;;;5058746;28;20492;-59
2022/05/28 15:55:57;;;;;;;5.43;1.38;;;16.00;24.20;;;;;;5052226;28;20123;-58
2022/05/28 15:59:23;;;;;;;6.15;1.35;;;16.10;23.60;;;;;;5065729;28;20043;-59
2022/05/28 16:02:48;;;;;;;5.68;1.30;;;16.10;23.30;;;;;;5058286;28;20036;-59
2022/05/28 16:06:14;;;;;;;7.60;2.00;;;16.00;23.70;;;;;;5031661;28;20034;-59
2022/05/28 16:09:39;;;;;;;3.10;1.10;;;16.00;23.80;;;;;;5060194;28;20035;-59
2022/05/28 16:13:04;;;;;;;7.50;1.63;;;16.00;24.10;;;;;;5051375;28;20370;-59
2022/05/28 16:16:30;;;;;;;3.72;1.42;;;16.00;24.40;;;;;;5060252;28;20041;-59
2022/05/28 16:19:55;;;;;;;5.72;1.38;;;16.10;25.20;;;;;;5060044;28;20553;-59